sensor_id;sensor_type;location;lat;lon;timestamp;P1;durP1;ratioP1;P2;durP2;ratioP2
18677;SDS011;9469;51.114;13.914;2022-11-20T00:04:08;32.43;;;18.83;;
18677;SDS011;9469;51.114;13.914;2022-11-20T00:09:14;34.00;;;19.33;;
18677;SDS011;9469;51.114;13.914;2022-11-20T00:14:22;31.20;;;18.20;;
18677;SDS011;9469;51.114;13.914;2022-11-20T00:19:29;32.27;;;18.33;;
18677;SDS011;9469;51.114;13.914;2022-11-20T00:24:34;28.40;;;17.20;;
18677;SDS011;9469;51.114;13.914;2022-11-20T00:29:46;33.10;;;18.33;;
18677;SDS011;9469;51.114;13.914;2022-11-20T00:34:51;28.93;;;16.70;;
18677;SDS011;9469;51.114;13.914;2022-11-20T00:39:56;29.40;;;17.30;;
18677;SDS011;9469;51.114;13.914;2022-11-20T00:45:04;28.13;;;17.03;;
18677;SDS011;9469;51.114;13.914;2022-11-20T00:50:10;28.73;;;17.03;;
18677;SDS011;9469;51.114;13.914;2022-11-20T00:55:15;29.63;;;17.73;;
18677;SDS011;9469;51.114;13.914;2022-11-20T01:00:24;31.73;;;18.50;;
18677;SDS011;9469;51.114;13.914;2022-11-20T01:05:28;30.23;;;17.83;;
18677;SDS011;9469;51.114;13.914;2022-11-20T01:10:38;37.33;;;19.60;;
18677;SDS011;9469;51.114;13.914;2022-11-20T01:15:47;33.97;;;18.57;;
18677;SDS011;9469;51.114;13.914;2022-11-20T01:20:52;30.37;;;17.63;;
18677;SDS011;9469;51.114;13.914;2022-11-20T01:25:58;32.63;;;18.37;;
18677;SDS011;9469;51.114;13.914;2022-11-20T01:31:15;31.27;;;18.57;;
18677;SDS011;9469;51.114;13.914;2022-11-20T01:36:21;36.07;;;18.33;;
18677;SDS011;9469;51.114;13.914;2022-11-20T01:41:31;34.87;;;17.03;;
18677;SDS011;9469;51.114;13.914;2022-11-20T01:47:01;27.43;;;16.37;;
18677;SDS011;9469;51.114;13.914;2022-11-20T01:52:11;30.60;;;18.53;;
18677;SDS011;9469;51.114;13.914;2022-11-20T01:57:19;32.73;;;18.40;;
18677;SDS011;9469;51.114;13.914;2022-11-20T02:02:29;30.23;;;18.97;;
18677;SDS011;9469;51.114;13.914;2022-11-20T02:07:34;33.80;;;18.87;;
18677;SDS011;9469;51.114;13.914;2022-11-20T02:12:40;32.87;;;18.23;;
18677;SDS011;9469;51.114;13.914;2022-11-20T02:18:01;30.80;;;17.83;;
18677;SDS011;9469;51.114;13.914;2022-11-20T02:23:08;31.30;;;18.40;;
18677;SDS011;9469;51.114;13.914;2022-11-20T02:28:21;36.10;;;19.53;;
18677;SDS011;9469;51.114;13.914;2022-11-20T02:33:27;32.80;;;19.27;;
18677;SDS011;9469;51.114;13.914;2022-11-20T02:38:31;31.23;;;18.10;;
18677;SDS011;9469;51.114;13.914;2022-11-20T02:43:40;35.97;;;19.23;;
18677;SDS011;9469;51.114;13.914;2022-11-20T02:48:45;37.33;;;20.00;;
18677;SDS011;9469;51.114;13.914;2022-11-20T02:53:50;35.20;;;18.53;;
18677;SDS011;9469;51.114;13.914;2022-11-20T02:58:58;35.77;;;20.00;;
18677;SDS011;9469;51.114;13.914;2022-11-20T03:04:03;35.37;;;18.03;;
18677;SDS011;9469;51.114;13.914;2022-11-20T03:09:08;35.70;;;20.07;;
18677;SDS011;9469;51.114;13.914;2022-11-20T03:14:16;38.07;;;20.07;;
18677;SDS011;9469;51.114;13.914;2022-11-20T03:19:21;40.03;;;19.43;;
18677;SDS011;9469;51.114;13.914;2022-11-20T03:24:27;34.43;;;19.23;;
18677;SDS011;9469;51.114;13.914;2022-11-20T03:29:34;39.00;;;18.97;;
18677;SDS011;9469;51.114;13.914;2022-11-20T03:34:39;32.00;;;18.70;;
18677;SDS011;9469;51.114;13.914;2022-11-20T03:39:44;37.73;;;19.83;;
18677;SDS011;9469;51.114;13.914;2022-11-20T03:44:52;35.80;;;20.27;;
18677;SDS011;9469;51.114;13.914;2022-11-20T03:49:57;39.10;;;19.57;;
18677;SDS011;9469;51.114;13.914;2022-11-20T03:55:04;34.07;;;19.13;;
18677;SDS011;9469;51.114;13.914;2022-11-20T04:00:13;38.57;;;19.17;;
18677;SDS011;9469;51.114;13.914;2022-11-20T04:05:19;38.43;;;19.53;;
18677;SDS011;9469;51.114;13.914;2022-11-20T04:10:24;33.80;;;19.33;;
18677;SDS011;9469;51.114;13.914;2022-11-20T04:15:31;35.10;;;19.37;;
18677;SDS011;9469;51.114;13.914;2022-11-20T04:20:39;33.03;;;19.53;;
18677;SDS011;9469;51.114;13.914;2022-11-20T04:25:44;32.33;;;19.07;;
18677;SDS011;9469;51.114;13.914;2022-11-20T04:30:51;36.97;;;21.23;;
18677;SDS011;9469;51.114;13.914;2022-11-20T04:35:59;39.73;;;20.20;;
18677;SDS011;9469;51.114;13.914;2022-11-20T04:41:07;36.57;;;20.83;;
18677;SDS011;9469;51.114;13.914;2022-11-20T04:46:17;41.57;;;21.90;;
18677;SDS011;9469;51.114;13.914;2022-11-20T04:51:23;37.90;;;22.60;;
18677;SDS011;9469;51.114;13.914;2022-11-20T04:56:28;40.20;;;21.70;;
18677;SDS011;9469;51.114;13.914;2022-11-20T05:01:36;42.23;;;21.50;;
18677;SDS011;9469;51.114;13.914;2022-11-20T05:06:41;37.90;;;21.83;;
18677;SDS011;9469;51.114;13.914;2022-11-20T05:11:47;36.87;;;19.67;;
18677;SDS011;9469;51.114;13.914;2022-11-20T05:16:54;40.00;;;21.73;;
18677;SDS011;9469;51.114;13.914;2022-11-20T05:22:00;41.80;;;21.90;;
18677;SDS011;9469;51.114;13.914;2022-11-20T05:27:05;41.07;;;23.37;;
18677;SDS011;9469;51.114;13.914;2022-11-20T05:32:12;43.63;;;22.70;;
18677;SDS011;9469;51.114;13.914;2022-11-20T05:37:17;39.03;;;22.40;;
18677;SDS011;9469;51.114;13.914;2022-11-20T05:42:22;44.90;;;23.47;;
18677;SDS011;9469;51.114;13.914;2022-11-20T05:47:40;42.73;;;21.87;;
18677;SDS011;9469;51.114;13.914;2022-11-20T05:52:45;48.30;;;25.50;;
18677;SDS011;9469;51.114;13.914;2022-11-20T05:57:52;43.97;;;23.43;;
18677;SDS011;9469;51.114;13.914;2022-11-20T06:03:01;40.83;;;20.63;;
18677;SDS011;9469;51.114;13.914;2022-11-20T06:08:06;42.23;;;23.33;;
18677;SDS011;9469;51.114;13.914;2022-11-20T06:13:11;43.40;;;21.67;;
18677;SDS011;9469;51.114;13.914;2022-11-20T06:18:19;41.73;;;21.87;;
18677;SDS011;9469;51.114;13.914;2022-11-20T06:23:24;46.87;;;21.73;;
18677;SDS011;9469;51.114;13.914;2022-11-20T06:28:31;47.00;;;23.13;;
18677;SDS011;9469;51.114;13.914;2022-11-20T06:33:39;50.00;;;26.60;;
18677;SDS011;9469;51.114;13.914;2022-11-20T06:38:44;45.47;;;22.67;;
18677;SDS011;9469;51.114;13.914;2022-11-20T06:43:51;43.70;;;23.70;;
18677;SDS011;9469;51.114;13.914;2022-11-20T06:48:59;44.17;;;23.77;;
18677;SDS011;9469;51.114;13.914;2022-11-20T06:54:05;47.23;;;23.10;;
18677;SDS011;9469;51.114;13.914;2022-11-20T06:59:10;43.87;;;24.47;;
18677;SDS011;9469;51.114;13.914;2022-11-20T07:04:18;45.43;;;26.07;;
18677;SDS011;9469;51.114;13.914;2022-11-20T07:09:23;54.20;;;27.47;;
18677;SDS011;9469;51.114;13.914;2022-11-20T07:14:28;74.70;;;37.37;;
18677;SDS011;9469;51.114;13.914;2022-11-20T07:19:36;70.23;;;31.10;;
18677;SDS011;9469;51.114;13.914;2022-11-20T07:24:41;68.80;;;32.67;;
18677;SDS011;9469;51.114;13.914;2022-11-20T07:29:47;122.53;;;54.70;;
18677;SDS011;9469;51.114;13.914;2022-11-20T07:34:54;69.53;;;39.37;;
18677;SDS011;9469;51.114;13.914;2022-11-20T07:40:03;47.27;;;26.47;;
18677;SDS011;9469;51.114;13.914;2022-11-20T07:45:09;52.00;;;26.33;;
18677;SDS011;9469;51.114;13.914;2022-11-20T07:50:19;49.87;;;26.67;;
18677;SDS011;9469;51.114;13.914;2022-11-20T07:55:24;47.00;;;24.73;;
18677;SDS011;9469;51.114;13.914;2022-11-20T08:00:29;48.07;;;24.33;;
18677;SDS011;9469;51.114;13.914;2022-11-20T08:05:37;41.80;;;23.37;;
18677;SDS011;9469;51.114;13.914;2022-11-20T08:10:44;35.43;;;21.03;;
18677;SDS011;9469;51.114;13.914;2022-11-20T08:15:51;37.83;;;22.27;;
18677;SDS011;9469;51.114;13.914;2022-11-20T08:21:00;34.03;;;21.13;;
18677;SDS011;9469;51.114;13.914;2022-11-20T08:26:07;36.80;;;20.67;;
18677;SDS011;9469;51.114;13.914;2022-11-20T08:31:12;38.00;;;19.73;;
18677;SDS011;9469;51.114;13.914;2022-11-20T08:36:21;36.60;;;20.43;;
18677;SDS011;9469;51.114;13.914;2022-11-20T08:41:29;36.47;;;18.03;;
18677;SDS011;9469;51.114;13.914;2022-11-20T08:46:37;27.23;;;16.33;;
18677;SDS011;9469;51.114;13.914;2022-11-20T08:51:47;28.10;;;15.40;;
18677;SDS011;9469;51.114;13.914;2022-11-20T08:56:55;29.90;;;16.80;;
18677;SDS011;9469;51.114;13.914;2022-11-20T09:02:01;30.30;;;17.00;;
18677;SDS011;9469;51.114;13.914;2022-11-20T09:07:09;24.07;;;15.10;;
18677;SDS011;9469;51.114;13.914;2022-11-20T09:12:15;22.43;;;13.87;;
18677;SDS011;9469;51.114;13.914;2022-11-20T09:17:20;28.23;;;15.50;;
18677;SDS011;9469;51.114;13.914;2022-11-20T09:22:28;22.60;;;14.93;;
18677;SDS011;9469;51.114;13.914;2022-11-20T09:27:34;26.07;;;15.07;;
18677;SDS011;9469;51.114;13.914;2022-11-20T09:32:43;27.50;;;15.00;;
18677;SDS011;9469;51.114;13.914;2022-11-20T09:37:51;28.03;;;14.30;;
18677;SDS011;9469;51.114;13.914;2022-11-20T09:42:57;22.13;;;14.20;;
18677;SDS011;9469;51.114;13.914;2022-11-20T09:48:11;22.70;;;13.53;;
18677;SDS011;9469;51.114;13.914;2022-11-20T09:53:28;21.90;;;12.70;;
18677;SDS011;9469;51.114;13.914;2022-11-20T09:58:42;21.23;;;13.13;;
18677;SDS011;9469;51.114;13.914;2022-11-20T10:03:51;23.03;;;14.17;;
18677;SDS011;9469;51.114;13.914;2022-11-20T10:09:04;20.43;;;13.17;;
18677;SDS011;9469;51.114;13.914;2022-11-20T10:14:25;21.23;;;12.13;;
18677;SDS011;9469;51.114;13.914;2022-11-20T10:19:45;18.37;;;11.37;;
18677;SDS011;9469;51.114;13.914;2022-11-20T10:25:04;18.97;;;11.70;;
18677;SDS011;9469;51.114;13.914;2022-11-20T10:30:16;18.67;;;11.83;;
18677;SDS011;9469;51.114;13.914;2022-11-20T10:35:27;20.07;;;13.27;;
18677;SDS011;9469;51.114;13.914;2022-11-20T10:40:41;17.33;;;11.23;;
18677;SDS011;9469;51.114;13.914;2022-11-20T10:45:49;17.10;;;11.13;;
18677;SDS011;9469;51.114;13.914;2022-11-20T10:51:07;17.30;;;10.70;;
18677;SDS011;9469;51.114;13.914;2022-11-20T10:56:24;12.83;;;9.97;;
18677;SDS011;9469;51.114;13.914;2022-11-20T11:01:39;15.57;;;10.33;;
18677;SDS011;9469;51.114;13.914;2022-11-20T11:06:47;14.37;;;9.70;;
18677;SDS011;9469;51.114;13.914;2022-11-20T11:11:56;11.70;;;8.77;;
18677;SDS011;9469;51.114;13.914;2022-11-20T11:17:19;12.47;;;8.47;;
18677;SDS011;9469;51.114;13.914;2022-11-20T11:22:30;11.97;;;8.33;;
18677;SDS011;9469;51.114;13.914;2022-11-20T11:27:48;11.20;;;8.23;;
18677;SDS011;9469;51.114;13.914;2022-11-20T11:33:04;16.97;;;8.97;;
18677;SDS011;9469;51.114;13.914;2022-11-20T11:38:12;12.07;;;8.23;;
18677;SDS011;9469;51.114;13.914;2022-11-20T11:43:26;10.33;;;7.53;;
18677;SDS011;9469;51.114;13.914;2022-11-20T11:48:54;11.10;;;8.40;;
18677;SDS011;9469;51.114;13.914;2022-11-20T11:54:00;10.53;;;7.97;;
18677;SDS011;9469;51.114;13.914;2022-11-20T11:59:21;12.60;;;8.40;;
18677;SDS011;9469;51.114;13.914;2022-11-20T12:04:37;12.50;;;9.07;;
18677;SDS011;9469;51.114;13.914;2022-11-20T12:09:51;12.13;;;8.97;;
18677;SDS011;9469;51.114;13.914;2022-11-20T12:15:09;11.87;;;8.20;;
18677;SDS011;9469;51.114;13.914;2022-11-20T12:20:20;12.50;;;8.60;;
18677;SDS011;9469;51.114;13.914;2022-11-20T12:25:29;13.20;;;8.90;;
18677;SDS011;9469;51.114;13.914;2022-11-20T12:30:41;12.87;;;8.93;;
18677;SDS011;9469;51.114;13.914;2022-11-20T12:36:03;11.53;;;8.17;;
18677;SDS011;9469;51.114;13.914;2022-11-20T12:41:17;11.97;;;7.93;;
18677;SDS011;9469;51.114;13.914;2022-11-20T12:46:55;12.93;;;7.70;;
18677;SDS011;9469;51.114;13.914;2022-11-20T12:52:20;12.17;;;8.57;;
18677;SDS011;9469;51.114;13.914;2022-11-20T12:57:36;15.07;;;8.90;;
18677;SDS011;9469;51.114;13.914;2022-11-20T13:08:28;12.20;;;7.93;;
18677;SDS011;9469;51.114;13.914;2022-11-20T13:13:40;11.90;;;7.53;;
18677;SDS011;9469;51.114;13.914;2022-11-20T13:18:55;10.63;;;6.97;;
18677;SDS011;9469;51.114;13.914;2022-11-20T13:24:03;10.70;;;6.47;;
18677;SDS011;9469;51.114;13.914;2022-11-20T13:29:09;8.50;;;7.00;;
18677;SDS011;9469;51.114;13.914;2022-11-20T13:34:25;11.20;;;8.00;;
18677;SDS011;9469;51.114;13.914;2022-11-20T13:39:32;12.13;;;7.67;;
18677;SDS011;9469;51.114;13.914;2022-11-20T13:44:43;10.03;;;7.03;;
18677;SDS011;9469;51.114;13.914;2022-11-20T13:49:54;11.30;;;7.50;;
18677;SDS011;9469;51.114;13.914;2022-11-20T13:55:12;10.33;;;6.77;;
18677;SDS011;9469;51.114;13.914;2022-11-20T14:00:26;11.57;;;8.27;;
18677;SDS011;9469;51.114;13.914;2022-11-20T14:05:34;8.63;;;6.60;;
18677;SDS011;9469;51.114;13.914;2022-11-20T14:10:41;10.17;;;6.80;;
18677;SDS011;9469;51.114;13.914;2022-11-20T14:15:46;10.37;;;7.13;;
18677;SDS011;9469;51.114;13.914;2022-11-20T14:20:54;10.87;;;7.13;;
18677;SDS011;9469;51.114;13.914;2022-11-20T14:25:59;8.87;;;6.97;;
18677;SDS011;9469;51.114;13.914;2022-11-20T14:31:08;9.27;;;6.90;;
18677;SDS011;9469;51.114;13.914;2022-11-20T14:36:25;9.60;;;7.43;;
18677;SDS011;9469;51.114;13.914;2022-11-20T14:41:31;9.73;;;6.80;;
18677;SDS011;9469;51.114;13.914;2022-11-20T14:46:37;9.53;;;7.50;;
18677;SDS011;9469;51.114;13.914;2022-11-20T14:51:45;11.27;;;7.53;;
18677;SDS011;9469;51.114;13.914;2022-11-20T14:56:54;11.23;;;8.43;;
18677;SDS011;9469;51.114;13.914;2022-11-20T15:02:01;9.80;;;7.97;;
18677;SDS011;9469;51.114;13.914;2022-11-20T15:07:11;13.67;;;9.67;;
18677;SDS011;9469;51.114;13.914;2022-11-20T15:12:16;13.40;;;8.97;;
18677;SDS011;9469;51.114;13.914;2022-11-20T15:17:22;12.63;;;8.80;;
18677;SDS011;9469;51.114;13.914;2022-11-20T15:22:31;13.00;;;9.13;;
18677;SDS011;9469;51.114;13.914;2022-11-20T15:27:36;12.73;;;9.67;;
18677;SDS011;9469;51.114;13.914;2022-11-20T15:32:41;12.73;;;8.63;;
18677;SDS011;9469;51.114;13.914;2022-11-20T15:37:50;12.40;;;8.93;;
18677;SDS011;9469;51.114;13.914;2022-11-20T15:42:55;15.50;;;9.90;;
18677;SDS011;9469;51.114;13.914;2022-11-20T15:48:15;14.53;;;9.53;;
18677;SDS011;9469;51.114;13.914;2022-11-20T15:53:24;15.80;;;13.53;;
18677;SDS011;9469;51.114;13.914;2022-11-20T15:58:30;14.83;;;10.97;;
18677;SDS011;9469;51.114;13.914;2022-11-20T16:03:35;15.13;;;10.40;;
18677;SDS011;9469;51.114;13.914;2022-11-20T16:08:42;15.20;;;10.27;;
18677;SDS011;9469;51.114;13.914;2022-11-20T16:13:47;16.60;;;10.70;;
18677;SDS011;9469;51.114;13.914;2022-11-20T16:19:05;14.87;;;10.50;;
18677;SDS011;9469;51.114;13.914;2022-11-20T16:24:13;16.87;;;10.97;;
18677;SDS011;9469;51.114;13.914;2022-11-20T16:29:21;15.13;;;10.27;;
18677;SDS011;9469;51.114;13.914;2022-11-20T16:34:26;23.03;;;10.47;;
18677;SDS011;9469;51.114;13.914;2022-11-20T16:39:35;16.00;;;10.50;;
18677;SDS011;9469;51.114;13.914;2022-11-20T16:44:46;19.03;;;12.30;;
18677;SDS011;9469;51.114;13.914;2022-11-20T16:49:53;19.00;;;12.07;;
18677;SDS011;9469;51.114;13.914;2022-11-20T16:55:01;19.63;;;12.47;;
18677;SDS011;9469;51.114;13.914;2022-11-20T17:00:07;21.43;;;12.93;;
18677;SDS011;9469;51.114;13.914;2022-11-20T17:05:13;21.30;;;13.87;;
18677;SDS011;9469;51.114;13.914;2022-11-20T17:10:21;22.13;;;13.83;;
18677;SDS011;9469;51.114;13.914;2022-11-20T17:15:26;27.63;;;16.67;;
18677;SDS011;9469;51.114;13.914;2022-11-20T17:20:37;23.60;;;16.77;;
18677;SDS011;9469;51.114;13.914;2022-11-20T17:25:45;28.67;;;19.37;;
18677;SDS011;9469;51.114;13.914;2022-11-20T17:30:50;31.97;;;18.73;;
18677;SDS011;9469;51.114;13.914;2022-11-20T17:35:55;26.50;;;16.07;;
18677;SDS011;9469;51.114;13.914;2022-11-20T17:41:04;27.57;;;17.57;;
18677;SDS011;9469;51.114;13.914;2022-11-20T17:46:11;35.53;;;20.27;;
18677;SDS011;9469;51.114;13.914;2022-11-20T17:51:20;44.70;;;23.53;;
18677;SDS011;9469;51.114;13.914;2022-11-20T17:56:32;40.73;;;23.17;;
18677;SDS011;9469;51.114;13.914;2022-11-20T18:01:50;38.70;;;23.00;;
18677;SDS011;9469;51.114;13.914;2022-11-20T18:07:00;42.90;;;24.53;;
18677;SDS011;9469;51.114;13.914;2022-11-20T18:12:08;27.07;;;18.60;;
18677;SDS011;9469;51.114;13.914;2022-11-20T18:17:15;25.83;;;16.40;;
18677;SDS011;9469;51.114;13.914;2022-11-20T18:22:20;22.97;;;16.77;;
18677;SDS011;9469;51.114;13.914;2022-11-20T18:27:31;20.83;;;14.03;;
18677;SDS011;9469;51.114;13.914;2022-11-20T18:32:36;26.40;;;16.47;;
18677;SDS011;9469;51.114;13.914;2022-11-20T18:37:48;28.07;;;17.70;;
18677;SDS011;9469;51.114;13.914;2022-11-20T18:42:56;32.40;;;20.23;;
18677;SDS011;9469;51.114;13.914;2022-11-20T18:48:13;35.00;;;21.37;;
18677;SDS011;9469;51.114;13.914;2022-11-20T18:53:19;31.40;;;20.90;;
18677;SDS011;9469;51.114;13.914;2022-11-20T18:58:27;27.20;;;17.10;;
18677;SDS011;9469;51.114;13.914;2022-11-20T19:03:36;28.77;;;17.50;;
18677;SDS011;9469;51.114;13.914;2022-11-20T19:08:48;25.37;;;16.90;;
18677;SDS011;9469;51.114;13.914;2022-11-20T19:13:57;23.70;;;16.33;;
18677;SDS011;9469;51.114;13.914;2022-11-20T19:19:07;28.47;;;17.20;;
18677;SDS011;9469;51.114;13.914;2022-11-20T19:24:13;27.73;;;17.67;;
18677;SDS011;9469;51.114;13.914;2022-11-20T19:29:22;33.80;;;21.93;;
18677;SDS011;9469;51.114;13.914;2022-11-20T19:34:31;29.70;;;19.27;;
18677;SDS011;9469;51.114;13.914;2022-11-20T19:39:37;35.13;;;20.70;;
18677;SDS011;9469;51.114;13.914;2022-11-20T19:44:45;26.27;;;16.30;;
18677;SDS011;9469;51.114;13.914;2022-11-20T19:49:51;32.80;;;19.93;;
18677;SDS011;9469;51.114;13.914;2022-11-20T19:54:57;37.17;;;21.10;;
18677;SDS011;9469;51.114;13.914;2022-11-20T20:00:06;36.33;;;21.10;;
18677;SDS011;9469;51.114;13.914;2022-11-20T20:05:13;32.73;;;20.37;;
18677;SDS011;9469;51.114;13.914;2022-11-20T20:10:18;34.40;;;20.63;;
18677;SDS011;9469;51.114;13.914;2022-11-20T20:15:27;34.67;;;21.40;;
18677;SDS011;9469;51.114;13.914;2022-11-20T20:20:33;35.80;;;21.10;;
18677;SDS011;9469;51.114;13.914;2022-11-20T20:25:38;46.33;;;25.47;;
18677;SDS011;9469;51.114;13.914;2022-11-20T20:30:47;33.43;;;22.27;;
18677;SDS011;9469;51.114;13.914;2022-11-20T20:35:52;30.23;;;18.87;;
18677;SDS011;9469;51.114;13.914;2022-11-20T20:40:58;31.47;;;18.77;;
18677;SDS011;9469;51.114;13.914;2022-11-20T20:46:06;33.03;;;19.07;;
18677;SDS011;9469;51.114;13.914;2022-11-20T20:51:11;31.77;;;20.30;;
18677;SDS011;9469;51.114;13.914;2022-11-20T20:56:16;60.07;;;44.90;;
18677;SDS011;9469;51.114;13.914;2022-11-20T21:01:24;39.80;;;28.10;;
18677;SDS011;9469;51.114;13.914;2022-11-20T21:06:30;32.57;;;19.23;;
18677;SDS011;9469;51.114;13.914;2022-11-20T21:11:35;29.47;;;17.73;;
18677;SDS011;9469;51.114;13.914;2022-11-20T21:16:44;26.30;;;17.50;;
18677;SDS011;9469;51.114;13.914;2022-11-20T21:21:49;30.10;;;16.10;;
18677;SDS011;9469;51.114;13.914;2022-11-20T21:27:05;26.03;;;17.33;;
18677;SDS011;9469;51.114;13.914;2022-11-20T21:32:13;32.10;;;17.03;;
18677;SDS011;9469;51.114;13.914;2022-11-20T21:37:18;33.63;;;19.03;;
18677;SDS011;9469;51.114;13.914;2022-11-20T21:42:23;29.07;;;17.70;;
18677;SDS011;9469;51.114;13.914;2022-11-20T21:47:32;30.97;;;18.00;;
18677;SDS011;9469;51.114;13.914;2022-11-20T21:52:37;31.63;;;17.73;;
18677;SDS011;9469;51.114;13.914;2022-11-20T21:57:42;31.73;;;16.73;;
18677;SDS011;9469;51.114;13.914;2022-11-20T22:02:49;30.23;;;18.33;;
18677;SDS011;9469;51.114;13.914;2022-11-20T22:07:54;34.30;;;20.23;;
18677;SDS011;9469;51.114;13.914;2022-11-20T22:13:02;30.07;;;17.33;;
18677;SDS011;9469;51.114;13.914;2022-11-20T22:18:23;34.43;;;19.10;;
18677;SDS011;9469;51.114;13.914;2022-11-20T22:23:28;30.07;;;18.50;;
18677;SDS011;9469;51.114;13.914;2022-11-20T22:28:33;33.63;;;17.90;;
18677;SDS011;9469;51.114;13.914;2022-11-20T22:33:41;28.83;;;17.03;;
18677;SDS011;9469;51.114;13.914;2022-11-20T22:38:47;36.77;;;18.07;;
18677;SDS011;9469;51.114;13.914;2022-11-20T22:43:52;32.10;;;18.47;;
18677;SDS011;9469;51.114;13.914;2022-11-20T22:49:01;36.70;;;19.93;;
18677;SDS011;9469;51.114;13.914;2022-11-20T22:54:09;37.93;;;19.00;;
18677;SDS011;9469;51.114;13.914;2022-11-20T22:59:15;35.13;;;19.47;;
18677;SDS011;9469;51.114;13.914;2022-11-20T23:04:22;37.17;;;19.47;;
18677;SDS011;9469;51.114;13.914;2022-11-20T23:09:27;38.90;;;21.13;;
18677;SDS011;9469;51.114;13.914;2022-11-20T23:14:32;38.83;;;21.53;;
18677;SDS011;9469;51.114;13.914;2022-11-20T23:19:42;47.03;;;23.43;;
18677;SDS011;9469;51.114;13.914;2022-11-20T23:24:46;51.03;;;25.20;;
18677;SDS011;9469;51.114;13.914;2022-11-20T23:29:51;43.90;;;22.83;;
18677;SDS011;9469;51.114;13.914;2022-11-20T23:35:02;48.27;;;22.93;;
18677;SDS011;9469;51.114;13.914;2022-11-20T23:40:08;47.13;;;25.13;;
18677;SDS011;9469;51.114;13.914;2022-11-20T23:45:13;42.33;;;23.50;;
18677;SDS011;9469;51.114;13.914;2022-11-20T23:50:21;44.00;;;22.83;;
18677;SDS011;9469;51.114;13.914;2022-11-20T23:55:26;47.73;;;23.23;;
